sensor_id;sensor_type;location;lat;lon;timestamp;P1;durP1;ratioP1;P2;durP2;ratioP2
22040;SDS011;11184;52.444;13.578;2023-04-06T00:00:28;10.07;;;8.52;;
22040;SDS011;11184;52.444;13.578;2023-04-06T00:03:12;8.90;;;7.75;;
22040;SDS011;11184;52.444;13.578;2023-04-06T00:05:57;8.05;;;7.38;;
22040;SDS011;11184;52.444;13.578;2023-04-06T00:08:42;7.45;;;6.85;;
22040;SDS011;11184;52.444;13.578;2023-04-06T00:11:28;7.85;;;7.07;;
22040;SDS011;11184;52.444;13.578;2023-04-06T00:14:12;9.30;;;7.28;;
22040;SDS011;11184;52.444;13.578;2023-04-06T00:16:57;8.48;;;7.65;;
22040;SDS011;11184;52.444;13.578;2023-04-06T00:19:42;8.68;;;7.32;;
22040;SDS011;11184;52.444;13.578;2023-04-06T00:22:26;8.95;;;7.32;;
22040;SDS011;11184;52.444;13.578;2023-04-06T00:25:11;8.05;;;7.35;;
22040;SDS011;11184;52.444;13.578;2023-04-06T00:27:55;10.27;;;8.13;;
22040;SDS011;11184;52.444;13.578;2023-04-06T00:30:40;9.55;;;8.48;;
22040;SDS011;11184;52.444;13.578;2023-04-06T00:33:25;10.23;;;9.23;;
22040;SDS011;11184;52.444;13.578;2023-04-06T00:36:10;9.48;;;7.90;;
22040;SDS011;11184;52.444;13.578;2023-04-06T00:38:55;8.07;;;7.38;;
22040;SDS011;11184;52.444;13.578;2023-04-06T00:41:41;7.60;;;6.93;;
22040;SDS011;11184;52.444;13.578;2023-04-06T00:44:28;12.30;;;8.27;;
22040;SDS011;11184;52.444;13.578;2023-04-06T00:47:13;9.20;;;7.43;;
22040;SDS011;11184;52.444;13.578;2023-04-06T00:49:58;8.27;;;7.43;;
22040;SDS011;11184;52.444;13.578;2023-04-06T00:52:43;8.50;;;7.63;;
22040;SDS011;11184;52.444;13.578;2023-04-06T00:55:28;9.25;;;6.65;;
22040;SDS011;11184;52.444;13.578;2023-04-06T00:58:13;8.45;;;7.22;;
22040;SDS011;11184;52.444;13.578;2023-04-06T01:00:58;11.68;;;8.38;;
22040;SDS011;11184;52.444;13.578;2023-04-06T01:03:43;9.73;;;8.25;;
22040;SDS011;11184;52.444;13.578;2023-04-06T01:06:28;8.45;;;7.15;;
22040;SDS011;11184;52.444;13.578;2023-04-06T01:09:13;14.32;;;8.65;;
22040;SDS011;11184;52.444;13.578;2023-04-06T01:11:58;8.07;;;7.38;;
22040;SDS011;11184;52.444;13.578;2023-04-06T01:14:42;9.32;;;7.82;;
22040;SDS011;11184;52.444;13.578;2023-04-06T01:17:27;7.68;;;6.97;;
22040;SDS011;11184;52.444;13.578;2023-04-06T01:20:12;11.02;;;7.72;;
22040;SDS011;11184;52.444;13.578;2023-04-06T01:22:56;8.18;;;6.93;;
22040;SDS011;11184;52.444;13.578;2023-04-06T01:25:41;9.05;;;8.27;;
22040;SDS011;11184;52.444;13.578;2023-04-06T01:28:25;8.10;;;7.40;;
22040;SDS011;11184;52.444;13.578;2023-04-06T01:31:10;8.90;;;7.47;;
22040;SDS011;11184;52.444;13.578;2023-04-06T01:33:55;11.82;;;7.75;;
22040;SDS011;11184;52.444;13.578;2023-04-06T01:36:39;8.70;;;7.43;;
22040;SDS011;11184;52.444;13.578;2023-04-06T01:39:25;11.70;;;7.70;;
22040;SDS011;11184;52.444;13.578;2023-04-06T01:42:09;8.00;;;7.20;;
22040;SDS011;11184;52.444;13.578;2023-04-06T01:44:54;9.02;;;8.05;;
22040;SDS011;11184;52.444;13.578;2023-04-06T01:47:39;8.75;;;7.75;;
22040;SDS011;11184;52.444;13.578;2023-04-06T01:50:23;8.73;;;7.20;;
22040;SDS011;11184;52.444;13.578;2023-04-06T01:53:08;9.25;;;8.35;;
22040;SDS011;11184;52.444;13.578;2023-04-06T01:55:53;8.80;;;8.07;;
22040;SDS011;11184;52.444;13.578;2023-04-06T01:58:38;9.18;;;7.95;;
22040;SDS011;11184;52.444;13.578;2023-04-06T02:01:23;13.10;;;9.15;;
22040;SDS011;11184;52.444;13.578;2023-04-06T02:04:07;12.07;;;8.15;;
22040;SDS011;11184;52.444;13.578;2023-04-06T02:06:52;9.00;;;7.90;;
22040;SDS011;11184;52.444;13.578;2023-04-06T02:09:37;8.30;;;7.50;;
22040;SDS011;11184;52.444;13.578;2023-04-06T02:12:21;15.35;;;7.95;;
22040;SDS011;11184;52.444;13.578;2023-04-06T02:15:07;9.95;;;7.15;;
22040;SDS011;11184;52.444;13.578;2023-04-06T02:17:52;12.68;;;8.70;;
22040;SDS011;11184;52.444;13.578;2023-04-06T02:20:37;9.07;;;7.60;;
22040;SDS011;11184;52.444;13.578;2023-04-06T02:23:22;9.15;;;8.23;;
22040;SDS011;11184;52.444;13.578;2023-04-06T02:26:06;9.27;;;8.48;;
22040;SDS011;11184;52.444;13.578;2023-04-06T02:28:51;9.63;;;8.30;;
22040;SDS011;11184;52.444;13.578;2023-04-06T02:31:36;7.50;;;6.82;;
22040;SDS011;11184;52.444;13.578;2023-04-06T02:34:20;11.75;;;9.13;;
22040;SDS011;11184;52.444;13.578;2023-04-06T02:37:05;10.77;;;8.18;;
22040;SDS011;11184;52.444;13.578;2023-04-06T02:39:50;9.88;;;7.60;;
22040;SDS011;11184;52.444;13.578;2023-04-06T02:42:34;8.93;;;8.02;;
22040;SDS011;11184;52.444;13.578;2023-04-06T02:45:19;8.90;;;7.93;;
22040;SDS011;11184;52.444;13.578;2023-04-06T02:48:03;8.73;;;7.63;;
22040;SDS011;11184;52.444;13.578;2023-04-06T02:50:48;10.45;;;7.57;;
22040;SDS011;11184;52.444;13.578;2023-04-06T02:53:33;8.82;;;8.02;;
22040;SDS011;11184;52.444;13.578;2023-04-06T02:56:17;10.23;;;7.97;;
22040;SDS011;11184;52.444;13.578;2023-04-06T02:59:04;13.98;;;8.95;;
22040;SDS011;11184;52.444;13.578;2023-04-06T03:01:49;9.63;;;7.55;;
22040;SDS011;11184;52.444;13.578;2023-04-06T03:04:33;8.50;;;7.32;;
22040;SDS011;11184;52.444;13.578;2023-04-06T03:07:18;8.02;;;7.30;;
22040;SDS011;11184;52.444;13.578;2023-04-06T03:10:02;9.70;;;7.55;;
22040;SDS011;11184;52.444;13.578;2023-04-06T03:12:47;8.18;;;7.47;;
22040;SDS011;11184;52.444;13.578;2023-04-06T03:15:32;12.18;;;7.43;;
22040;SDS011;11184;52.444;13.578;2023-04-06T03:18:20;10.10;;;9.18;;
22040;SDS011;11184;52.444;13.578;2023-04-06T03:21:05;7.63;;;6.97;;
22040;SDS011;11184;52.444;13.578;2023-04-06T03:23:49;9.02;;;8.10;;
22040;SDS011;11184;52.444;13.578;2023-04-06T03:26:35;11.13;;;8.93;;
22040;SDS011;11184;52.444;13.578;2023-04-06T03:29:19;9.57;;;8.63;;
22040;SDS011;11184;52.444;13.578;2023-04-06T03:32:04;8.93;;;8.13;;
22040;SDS011;11184;52.444;13.578;2023-04-06T03:34:48;10.25;;;9.15;;
22040;SDS011;11184;52.444;13.578;2023-04-06T03:37:33;9.75;;;7.88;;
22040;SDS011;11184;52.444;13.578;2023-04-06T03:40:17;14.75;;;9.32;;
22040;SDS011;11184;52.444;13.578;2023-04-06T03:43:02;9.43;;;8.55;;
22040;SDS011;11184;52.444;13.578;2023-04-06T03:45:47;12.68;;;9.07;;
22040;SDS011;11184;52.444;13.578;2023-04-06T03:48:31;10.38;;;9.48;;
22040;SDS011;11184;52.444;13.578;2023-04-06T03:51:16;11.48;;;8.05;;
22040;SDS011;11184;52.444;13.578;2023-04-06T03:54:00;14.98;;;10.68;;
22040;SDS011;11184;52.444;13.578;2023-04-06T03:56:45;14.20;;;10.57;;
22040;SDS011;11184;52.444;13.578;2023-04-06T03:59:30;11.15;;;10.13;;
22040;SDS011;11184;52.444;13.578;2023-04-06T04:02:14;15.18;;;11.55;;
22040;SDS011;11184;52.444;13.578;2023-04-06T04:04:59;13.07;;;10.80;;
22040;SDS011;11184;52.444;13.578;2023-04-06T04:07:43;15.35;;;10.75;;
22040;SDS011;11184;52.444;13.578;2023-04-06T04:10:28;17.58;;;12.10;;
22040;SDS011;11184;52.444;13.578;2023-04-06T04:13:13;12.07;;;10.88;;
22040;SDS011;11184;52.444;13.578;2023-04-06T04:15:58;14.90;;;11.13;;
22040;SDS011;11184;52.444;13.578;2023-04-06T04:18:43;15.27;;;10.90;;
22040;SDS011;11184;52.444;13.578;2023-04-06T04:21:29;14.77;;;12.48;;
22040;SDS011;11184;52.444;13.578;2023-04-06T04:24:15;17.63;;;11.35;;
22040;SDS011;11184;52.444;13.578;2023-04-06T04:26:59;21.05;;;12.10;;
22040;SDS011;11184;52.444;13.578;2023-04-06T04:29:44;13.85;;;10.85;;
22040;SDS011;11184;52.444;13.578;2023-04-06T04:32:29;15.48;;;11.13;;
22040;SDS011;11184;52.444;13.578;2023-04-06T04:35:14;13.55;;;11.35;;
22040;SDS011;11184;52.444;13.578;2023-04-06T04:37:58;15.90;;;12.43;;
22040;SDS011;11184;52.444;13.578;2023-04-06T04:40:43;15.88;;;12.27;;
22040;SDS011;11184;52.444;13.578;2023-04-06T04:43:28;15.00;;;11.63;;
22040;SDS011;11184;52.444;13.578;2023-04-06T04:46:12;12.43;;;11.32;;
22040;SDS011;11184;52.444;13.578;2023-04-06T04:48:57;13.70;;;11.65;;
22040;SDS011;11184;52.444;13.578;2023-04-06T04:51:41;15.38;;;12.50;;
22040;SDS011;11184;52.444;13.578;2023-04-06T04:54:26;15.90;;;10.88;;
22040;SDS011;11184;52.444;13.578;2023-04-06T04:57:11;13.88;;;12.45;;
22040;SDS011;11184;52.444;13.578;2023-04-06T04:59:55;14.60;;;10.93;;
22040;SDS011;11184;52.444;13.578;2023-04-06T05:02:41;15.95;;;10.98;;
22040;SDS011;11184;52.444;13.578;2023-04-06T05:05:26;16.20;;;11.35;;
22040;SDS011;11184;52.444;13.578;2023-04-06T05:08:11;13.98;;;11.50;;
22040;SDS011;11184;52.444;13.578;2023-04-06T05:10:56;15.57;;;11.20;;
22040;SDS011;11184;52.444;13.578;2023-04-06T05:13:40;13.48;;;10.60;;
22040;SDS011;11184;52.444;13.578;2023-04-06T05:16:25;16.58;;;11.95;;
22040;SDS011;11184;52.444;13.578;2023-04-06T05:19:09;12.02;;;10.77;;
22040;SDS011;11184;52.444;13.578;2023-04-06T05:21:54;16.42;;;10.38;;
22040;SDS011;11184;52.444;13.578;2023-04-06T05:24:39;12.35;;;11.07;;
22040;SDS011;11184;52.444;13.578;2023-04-06T05:27:24;14.05;;;11.13;;
22040;SDS011;11184;52.444;13.578;2023-04-06T05:30:08;13.18;;;10.18;;
22040;SDS011;11184;52.444;13.578;2023-04-06T05:32:53;16.15;;;9.27;;
22040;SDS011;11184;52.444;13.578;2023-04-06T05:35:38;13.75;;;9.88;;
22040;SDS011;11184;52.444;13.578;2023-04-06T05:38:23;9.88;;;9.02;;
22040;SDS011;11184;52.444;13.578;2023-04-06T05:41:07;16.73;;;9.70;;
22040;SDS011;11184;52.444;13.578;2023-04-06T05:43:52;10.68;;;9.55;;
22040;SDS011;11184;52.444;13.578;2023-04-06T05:46:36;13.05;;;8.73;;
22040;SDS011;11184;52.444;13.578;2023-04-06T05:49:21;8.77;;;7.85;;
22040;SDS011;11184;52.444;13.578;2023-04-06T05:52:05;10.00;;;7.18;;
22040;SDS011;11184;52.444;13.578;2023-04-06T05:54:50;8.88;;;8.05;;
22040;SDS011;11184;52.444;13.578;2023-04-06T05:57:35;17.05;;;10.40;;
22040;SDS011;11184;52.444;13.578;2023-04-06T06:00:19;10.80;;;8.27;;
22040;SDS011;11184;52.444;13.578;2023-04-06T06:03:04;8.15;;;7.35;;
22040;SDS011;11184;52.444;13.578;2023-04-06T06:05:50;8.20;;;7.60;;
22040;SDS011;11184;52.444;13.578;2023-04-06T06:08:34;10.85;;;9.48;;
22040;SDS011;11184;52.444;13.578;2023-04-06T06:11:19;15.48;;;7.35;;
22040;SDS011;11184;52.444;13.578;2023-04-06T06:14:03;7.43;;;6.72;;
22040;SDS011;11184;52.444;13.578;2023-04-06T06:16:48;9.15;;;8.10;;
22040;SDS011;11184;52.444;13.578;2023-04-06T06:19:33;8.00;;;7.20;;
22040;SDS011;11184;52.444;13.578;2023-04-06T06:22:18;11.95;;;7.57;;
22040;SDS011;11184;52.444;13.578;2023-04-06T06:25:03;17.38;;;10.65;;
22040;SDS011;11184;52.444;13.578;2023-04-06T06:27:47;9.00;;;8.13;;
22040;SDS011;11184;52.444;13.578;2023-04-06T06:30:32;9.35;;;8.45;;
22040;SDS011;11184;52.444;13.578;2023-04-06T06:33:16;15.35;;;10.02;;
22040;SDS011;11184;52.444;13.578;2023-04-06T06:36:01;8.45;;;7.20;;
22040;SDS011;11184;52.444;13.578;2023-04-06T06:38:46;9.60;;;7.80;;
22040;SDS011;11184;52.444;13.578;2023-04-06T06:41:30;8.50;;;7.00;;
22040;SDS011;11184;52.444;13.578;2023-04-06T06:44:15;7.63;;;6.93;;
22040;SDS011;11184;52.444;13.578;2023-04-06T06:47:00;8.68;;;7.32;;
22040;SDS011;11184;52.444;13.578;2023-04-06T06:49:44;9.23;;;7.38;;
22040;SDS011;11184;52.444;13.578;2023-04-06T06:52:29;6.43;;;5.82;;
22040;SDS011;11184;52.444;13.578;2023-04-06T06:55:14;8.65;;;6.10;;
22040;SDS011;11184;52.444;13.578;2023-04-06T06:57:59;7.40;;;6.55;;
22040;SDS011;11184;52.444;13.578;2023-04-06T07:00:43;6.13;;;4.60;;
22040;SDS011;11184;52.444;13.578;2023-04-06T07:03:28;14.48;;;5.15;;
22040;SDS011;11184;52.444;13.578;2023-04-06T07:06:13;4.40;;;4.00;;
22040;SDS011;11184;52.444;13.578;2023-04-06T07:08:58;6.13;;;5.40;;
22040;SDS011;11184;52.444;13.578;2023-04-06T07:11:42;7.90;;;4.57;;
22040;SDS011;11184;52.444;13.578;2023-04-06T07:14:27;6.65;;;6.03;;
22040;SDS011;11184;52.444;13.578;2023-04-06T07:17:11;8.68;;;5.72;;
22040;SDS011;11184;52.444;13.578;2023-04-06T07:19:56;6.38;;;4.53;;
22040;SDS011;11184;52.444;13.578;2023-04-06T07:22:42;9.77;;;5.13;;
22040;SDS011;11184;52.444;13.578;2023-04-06T07:25:28;7.63;;;5.45;;
22040;SDS011;11184;52.444;13.578;2023-04-06T07:28:13;6.20;;;5.30;;
22040;SDS011;11184;52.444;13.578;2023-04-06T07:30:58;11.63;;;4.65;;
22040;SDS011;11184;52.444;13.578;2023-04-06T07:33:42;9.00;;;5.18;;
22040;SDS011;11184;52.444;13.578;2023-04-06T07:36:27;5.40;;;4.95;;
22040;SDS011;11184;52.444;13.578;2023-04-06T07:39:11;5.25;;;4.35;;
22040;SDS011;11184;52.444;13.578;2023-04-06T07:41:56;9.45;;;4.95;;
22040;SDS011;11184;52.444;13.578;2023-04-06T07:44:41;7.43;;;6.28;;
22040;SDS011;11184;52.444;13.578;2023-04-06T07:47:25;6.10;;;4.22;;
22040;SDS011;11184;52.444;13.578;2023-04-06T07:50:10;6.90;;;5.10;;
22040;SDS011;11184;52.444;13.578;2023-04-06T07:52:55;9.90;;;8.50;;
22040;SDS011;11184;52.444;13.578;2023-04-06T07:55:41;10.98;;;7.30;;
22040;SDS011;11184;52.444;13.578;2023-04-06T07:58:26;5.30;;;4.75;;
22040;SDS011;11184;52.444;13.578;2023-04-06T08:01:11;12.07;;;4.70;;
22040;SDS011;11184;52.444;13.578;2023-04-06T08:03:55;5.47;;;3.22;;
22040;SDS011;11184;52.444;13.578;2023-04-06T08:06:40;4.03;;;3.20;;
22040;SDS011;11184;52.444;13.578;2023-04-06T08:09:25;4.20;;;3.40;;
22040;SDS011;11184;52.444;13.578;2023-04-06T08:12:10;4.97;;;4.25;;
22040;SDS011;11184;52.444;13.578;2023-04-06T08:14:55;8.40;;;4.20;;
22040;SDS011;11184;52.444;13.578;2023-04-06T08:17:40;3.50;;;3.08;;
22040;SDS011;11184;52.444;13.578;2023-04-06T08:20:26;8.55;;;4.68;;
22040;SDS011;11184;52.444;13.578;2023-04-06T08:23:10;12.32;;;4.68;;
22040;SDS011;11184;52.444;13.578;2023-04-06T08:25:55;6.43;;;3.00;;
22040;SDS011;11184;52.444;13.578;2023-04-06T08:28:40;6.78;;;2.20;;
22040;SDS011;11184;52.444;13.578;2023-04-06T08:31:24;4.88;;;2.35;;
22040;SDS011;11184;52.444;13.578;2023-04-06T08:34:09;3.63;;;2.80;;
22040;SDS011;11184;52.444;13.578;2023-04-06T08:36:54;6.35;;;3.22;;
22040;SDS011;11184;52.444;13.578;2023-04-06T08:39:39;2.60;;;2.40;;
22040;SDS011;11184;52.444;13.578;2023-04-06T08:42:24;4.35;;;2.58;;
22040;SDS011;11184;52.444;13.578;2023-04-06T08:45:09;3.72;;;3.15;;
22040;SDS011;11184;52.444;13.578;2023-04-06T08:47:54;3.42;;;2.97;;
22040;SDS011;11184;52.444;13.578;2023-04-06T08:50:41;9.57;;;3.42;;
22040;SDS011;11184;52.444;13.578;2023-04-06T08:53:26;3.63;;;3.10;;
22040;SDS011;11184;52.444;13.578;2023-04-06T08:56:11;5.22;;;3.08;;
22040;SDS011;11184;52.444;13.578;2023-04-06T08:58:56;4.35;;;2.33;;
22040;SDS011;11184;52.444;13.578;2023-04-06T09:01:40;3.63;;;2.72;;
22040;SDS011;11184;52.444;13.578;2023-04-06T09:04:27;3.58;;;2.50;;
22040;SDS011;11184;52.444;13.578;2023-04-06T09:07:11;3.10;;;2.47;;
22040;SDS011;11184;52.444;13.578;2023-04-06T09:09:56;4.07;;;3.08;;
22040;SDS011;11184;52.444;13.578;2023-04-06T09:12:40;9.50;;;2.63;;
22040;SDS011;11184;52.444;13.578;2023-04-06T09:15:25;4.20;;;2.58;;
22040;SDS011;11184;52.444;13.578;2023-04-06T09:18:10;4.15;;;2.63;;
22040;SDS011;11184;52.444;13.578;2023-04-06T09:21:01;5.05;;;2.17;;
22040;SDS011;11184;52.444;13.578;2023-04-06T09:23:46;4.63;;;2.92;;
22040;SDS011;11184;52.444;13.578;2023-04-06T09:26:32;11.85;;;3.67;;
22040;SDS011;11184;52.444;13.578;2023-04-06T09:29:23;3.40;;;2.40;;
22040;SDS011;11184;52.444;13.578;2023-04-06T09:32:11;3.10;;;2.13;;
22040;SDS011;11184;52.444;13.578;2023-04-06T09:35:07;2.83;;;2.13;;
22040;SDS011;11184;52.444;13.578;2023-04-06T09:37:52;2.90;;;2.15;;
22040;SDS011;11184;52.444;13.578;2023-04-06T09:40:46;4.25;;;2.38;;
22040;SDS011;11184;52.444;13.578;2023-04-06T09:43:31;4.70;;;2.35;;
22040;SDS011;11184;52.444;13.578;2023-04-06T09:46:17;2.40;;;1.45;;
22040;SDS011;11184;52.444;13.578;2023-04-06T09:49:02;4.88;;;1.75;;
22040;SDS011;11184;52.444;13.578;2023-04-06T09:51:54;2.25;;;1.67;;
22040;SDS011;11184;52.444;13.578;2023-04-06T09:54:39;3.42;;;2.03;;
22040;SDS011;11184;52.444;13.578;2023-04-06T09:57:25;3.92;;;2.58;;
22040;SDS011;11184;52.444;13.578;2023-04-06T10:00:13;2.88;;;2.00;;
22040;SDS011;11184;52.444;13.578;2023-04-06T10:03:08;1.88;;;1.67;;
22040;SDS011;11184;52.444;13.578;2023-04-06T10:05:57;3.53;;;1.63;;
22040;SDS011;11184;52.444;13.578;2023-04-06T10:08:45;2.67;;;2.35;;
22040;SDS011;11184;52.444;13.578;2023-04-06T10:11:32;3.83;;;2.33;;
22040;SDS011;11184;52.444;13.578;2023-04-06T10:14:16;3.13;;;2.20;;
22040;SDS011;11184;52.444;13.578;2023-04-06T10:17:01;7.65;;;2.63;;
22040;SDS011;11184;52.444;13.578;2023-04-06T10:19:51;4.85;;;2.13;;
22040;SDS011;11184;52.444;13.578;2023-04-06T10:22:43;3.88;;;2.13;;
22040;SDS011;11184;52.444;13.578;2023-04-06T10:25:34;4.20;;;1.63;;
22040;SDS011;11184;52.444;13.578;2023-04-06T10:28:20;4.47;;;1.90;;
22040;SDS011;11184;52.444;13.578;2023-04-06T10:31:05;1.80;;;1.50;;
22040;SDS011;11184;52.444;13.578;2023-04-06T10:33:54;2.03;;;1.33;;
22040;SDS011;11184;52.444;13.578;2023-04-06T10:36:39;6.35;;;1.80;;
22040;SDS011;11184;52.444;13.578;2023-04-06T10:39:24;3.50;;;2.20;;
22040;SDS011;11184;52.444;13.578;2023-04-06T10:42:10;4.85;;;1.83;;
22040;SDS011;11184;52.444;13.578;2023-04-06T10:44:55;9.18;;;2.85;;
22040;SDS011;11184;52.444;13.578;2023-04-06T10:47:40;5.93;;;1.77;;
22040;SDS011;11184;52.444;13.578;2023-04-06T10:50:24;6.13;;;1.83;;
22040;SDS011;11184;52.444;13.578;2023-04-06T10:53:09;6.57;;;1.92;;
22040;SDS011;11184;52.444;13.578;2023-04-06T10:55:54;10.80;;;5.70;;
22040;SDS011;11184;52.444;13.578;2023-04-06T10:58:43;2.17;;;1.73;;
22040;SDS011;11184;52.444;13.578;2023-04-06T11:01:30;6.35;;;2.33;;
22040;SDS011;11184;52.444;13.578;2023-04-06T11:04:17;3.22;;;1.88;;
22040;SDS011;11184;52.444;13.578;2023-04-06T11:07:03;3.95;;;2.63;;
22040;SDS011;11184;52.444;13.578;2023-04-06T11:09:49;4.65;;;1.80;;
22040;SDS011;11184;52.444;13.578;2023-04-06T11:12:34;4.70;;;2.15;;
22040;SDS011;11184;52.444;13.578;2023-04-06T11:15:19;3.83;;;1.90;;
22040;SDS011;11184;52.444;13.578;2023-04-06T11:18:04;2.28;;;1.80;;
22040;SDS011;11184;52.444;13.578;2023-04-06T11:20:48;3.97;;;1.77;;
22040;SDS011;11184;52.444;13.578;2023-04-06T11:23:33;7.15;;;1.70;;
22040;SDS011;11184;52.444;13.578;2023-04-06T11:26:17;4.22;;;1.70;;
22040;SDS011;11184;52.444;13.578;2023-04-06T11:29:02;1.90;;;1.27;;
22040;SDS011;11184;52.444;13.578;2023-04-06T11:31:48;6.05;;;2.35;;
22040;SDS011;11184;52.444;13.578;2023-04-06T11:34:33;4.05;;;1.75;;
22040;SDS011;11184;52.444;13.578;2023-04-06T11:37:20;2.05;;;1.40;;
22040;SDS011;11184;52.444;13.578;2023-04-06T11:40:07;3.50;;;2.40;;
22040;SDS011;11184;52.444;13.578;2023-04-06T11:42:53;4.50;;;2.50;;
22040;SDS011;11184;52.444;13.578;2023-04-06T11:45:42;2.20;;;1.40;;
22040;SDS011;11184;52.444;13.578;2023-04-06T11:48:26;3.30;;;1.70;;
22040;SDS011;11184;52.444;13.578;2023-04-06T11:51:11;3.28;;;1.80;;
22040;SDS011;11184;52.444;13.578;2023-04-06T11:53:56;4.80;;;1.30;;
22040;SDS011;11184;52.444;13.578;2023-04-06T11:56:41;2.15;;;1.75;;
22040;SDS011;11184;52.444;13.578;2023-04-06T11:59:26;2.33;;;1.25;;
22040;SDS011;11184;52.444;13.578;2023-04-06T12:02:10;1.33;;;1.23;;
22040;SDS011;11184;52.444;13.578;2023-04-06T12:04:55;3.78;;;1.52;;
22040;SDS011;11184;52.444;13.578;2023-04-06T12:07:40;2.50;;;1.42;;
22040;SDS011;11184;52.444;13.578;2023-04-06T12:10:24;5.32;;;1.95;;
22040;SDS011;11184;52.444;13.578;2023-04-06T12:13:09;1.95;;;1.75;;
22040;SDS011;11184;52.444;13.578;2023-04-06T12:15:54;5.85;;;1.80;;
22040;SDS011;11184;52.444;13.578;2023-04-06T12:18:38;1.50;;;1.02;;
22040;SDS011;11184;52.444;13.578;2023-04-06T12:21:23;3.60;;;1.40;;
22040;SDS011;11184;52.444;13.578;2023-04-06T12:24:08;5.82;;;3.53;;
22040;SDS011;11184;52.444;13.578;2023-04-06T12:26:53;4.07;;;1.50;;
22040;SDS011;11184;52.444;13.578;2023-04-06T12:29:37;3.00;;;1.83;;
22040;SDS011;11184;52.444;13.578;2023-04-06T12:32:22;2.33;;;1.63;;
22040;SDS011;11184;52.444;13.578;2023-04-06T12:35:07;3.03;;;1.67;;
22040;SDS011;11184;52.444;13.578;2023-04-06T12:37:52;2.53;;;1.40;;
22040;SDS011;11184;52.444;13.578;2023-04-06T12:40:38;2.53;;;1.73;;
22040;SDS011;11184;52.444;13.578;2023-04-06T12:43:23;14.93;;;13.52;;
22040;SDS011;11184;52.444;13.578;2023-04-06T12:46:08;6.13;;;3.15;;
22040;SDS011;11184;52.444;13.578;2023-04-06T12:48:53;4.13;;;2.72;;
22040;SDS011;11184;52.444;13.578;2023-04-06T12:51:38;2.50;;;1.83;;
22040;SDS011;11184;52.444;13.578;2023-04-06T12:54:23;10.20;;;2.38;;
22040;SDS011;11184;52.444;13.578;2023-04-06T12:57:09;3.35;;;2.45;;
22040;SDS011;11184;52.444;13.578;2023-04-06T12:59:54;4.18;;;2.03;;
22040;SDS011;11184;52.444;13.578;2023-04-06T13:02:39;5.80;;;1.88;;
22040;SDS011;11184;52.444;13.578;2023-04-06T13:05:30;2.33;;;1.73;;
22040;SDS011;11184;52.444;13.578;2023-04-06T13:08:15;2.90;;;1.83;;
22040;SDS011;11184;52.444;13.578;2023-04-06T13:10:59;2.50;;;1.95;;
22040;SDS011;11184;52.444;13.578;2023-04-06T13:13:44;2.83;;;1.88;;
22040;SDS011;11184;52.444;13.578;2023-04-06T13:16:28;1.67;;;1.50;;
22040;SDS011;11184;52.444;13.578;2023-04-06T13:19:13;2.35;;;1.50;;
22040;SDS011;11184;52.444;13.578;2023-04-06T13:21:58;3.35;;;2.20;;
22040;SDS011;11184;52.444;13.578;2023-04-06T13:24:43;3.88;;;1.90;;
22040;SDS011;11184;52.444;13.578;2023-04-06T13:27:28;2.03;;;1.73;;
22040;SDS011;11184;52.444;13.578;2023-04-06T13:30:13;2.78;;;1.67;;
22040;SDS011;11184;52.444;13.578;2023-04-06T13:32:58;4.15;;;2.85;;
22040;SDS011;11184;52.444;13.578;2023-04-06T13:35:45;4.68;;;1.30;;
22040;SDS011;11184;52.444;13.578;2023-04-06T13:38:30;3.85;;;2.30;;
22040;SDS011;11184;52.444;13.578;2023-04-06T13:41:18;3.80;;;1.95;;
22040;SDS011;11184;52.444;13.578;2023-04-06T13:44:02;2.33;;;1.90;;
22040;SDS011;11184;52.444;13.578;2023-04-06T13:46:47;2.20;;;1.77;;
22040;SDS011;11184;52.444;13.578;2023-04-06T13:49:31;3.97;;;1.67;;
22040;SDS011;11184;52.444;13.578;2023-04-06T13:52:16;2.47;;;1.55;;
22040;SDS011;11184;52.444;13.578;2023-04-06T13:55:02;6.10;;;1.67;;
22040;SDS011;11184;52.444;13.578;2023-04-06T13:57:46;3.15;;;2.03;;
22040;SDS011;11184;52.444;13.578;2023-04-06T14:00:31;2.03;;;1.67;;
22040;SDS011;11184;52.444;13.578;2023-04-06T14:03:16;2.38;;;1.40;;
22040;SDS011;11184;52.444;13.578;2023-04-06T14:06:00;3.45;;;1.88;;
22040;SDS011;11184;52.444;13.578;2023-04-06T14:08:45;2.17;;;1.50;;
22040;SDS011;11184;52.444;13.578;2023-04-06T14:11:30;2.90;;;2.05;;
22040;SDS011;11184;52.444;13.578;2023-04-06T14:14:15;2.78;;;2.38;;
22040;SDS011;11184;52.444;13.578;2023-04-06T14:17:01;1.85;;;1.67;;
22040;SDS011;11184;52.444;13.578;2023-04-06T14:19:45;4.47;;;1.45;;
22040;SDS011;11184;52.444;13.578;2023-04-06T14:22:31;3.10;;;1.80;;
22040;SDS011;11184;52.444;13.578;2023-04-06T14:25:15;2.30;;;2.10;;
22040;SDS011;11184;52.444;13.578;2023-04-06T14:28:00;3.38;;;1.67;;
22040;SDS011;11184;52.444;13.578;2023-04-06T14:30:44;3.45;;;1.75;;
22040;SDS011;11184;52.444;13.578;2023-04-06T14:33:29;1.58;;;1.27;;
22040;SDS011;11184;52.444;13.578;2023-04-06T14:36:14;2.53;;;1.65;;
22040;SDS011;11184;52.444;13.578;2023-04-06T14:38:59;2.25;;;1.77;;
22040;SDS011;11184;52.444;13.578;2023-04-06T14:41:43;1.95;;;1.55;;
22040;SDS011;11184;52.444;13.578;2023-04-06T14:44:28;6.25;;;1.70;;
22040;SDS011;11184;52.444;13.578;2023-04-06T14:47:14;2.88;;;1.48;;
22040;SDS011;11184;52.444;13.578;2023-04-06T14:50:04;3.13;;;1.65;;
22040;SDS011;11184;52.444;13.578;2023-04-06T14:52:49;2.25;;;1.42;;
22040;SDS011;11184;52.444;13.578;2023-04-06T14:55:38;2.15;;;1.95;;
22040;SDS011;11184;52.444;13.578;2023-04-06T14:58:24;2.92;;;1.40;;
22040;SDS011;11184;52.444;13.578;2023-04-06T15:01:09;1.48;;;1.30;;
22040;SDS011;11184;52.444;13.578;2023-04-06T15:03:55;3.28;;;1.83;;
22040;SDS011;11184;52.444;13.578;2023-04-06T15:06:40;2.67;;;2.30;;
22040;SDS011;11184;52.444;13.578;2023-04-06T15:09:25;1.90;;;1.70;;
22040;SDS011;11184;52.444;13.578;2023-04-06T15:12:10;4.18;;;1.95;;
22040;SDS011;11184;52.444;13.578;2023-04-06T15:14:54;2.42;;;1.63;;
22040;SDS011;11184;52.444;13.578;2023-04-06T15:17:39;3.50;;;1.55;;
22040;SDS011;11184;52.444;13.578;2023-04-06T15:20:23;7.43;;;2.13;;
22040;SDS011;11184;52.444;13.578;2023-04-06T15:23:08;4.03;;;1.85;;
22040;SDS011;11184;52.444;13.578;2023-04-06T15:25:53;3.22;;;1.45;;
22040;SDS011;11184;52.444;13.578;2023-04-06T15:28:38;3.03;;;1.90;;
22040;SDS011;11184;52.444;13.578;2023-04-06T15:31:23;2.28;;;1.65;;
22040;SDS011;11184;52.444;13.578;2023-04-06T15:34:08;1.92;;;1.63;;
22040;SDS011;11184;52.444;13.578;2023-04-06T15:36:53;2.38;;;1.70;;
22040;SDS011;11184;52.444;13.578;2023-04-06T15:39:38;2.38;;;1.60;;
22040;SDS011;11184;52.444;13.578;2023-04-06T15:42:23;4.70;;;2.05;;
22040;SDS011;11184;52.444;13.578;2023-04-06T15:45:07;1.60;;;1.30;;
22040;SDS011;11184;52.444;13.578;2023-04-06T15:47:52;3.63;;;1.85;;
22040;SDS011;11184;52.444;13.578;2023-04-06T15:50:36;3.78;;;1.50;;
22040;SDS011;11184;52.444;13.578;2023-04-06T15:53:21;3.87;;;1.73;;
22040;SDS011;11184;52.444;13.578;2023-04-06T15:56:06;1.77;;;1.65;;
22040;SDS011;11184;52.444;13.578;2023-04-06T15:58:52;4.35;;;1.30;;
22040;SDS011;11184;52.444;13.578;2023-04-06T16:01:37;3.30;;;1.80;;
22040;SDS011;11184;52.444;13.578;2023-04-06T16:04:23;3.80;;;1.38;;
22040;SDS011;11184;52.444;13.578;2023-04-06T16:07:07;4.32;;;1.73;;
22040;SDS011;11184;52.444;13.578;2023-04-06T16:09:54;6.70;;;3.80;;
22040;SDS011;11184;52.444;13.578;2023-04-06T16:12:38;1.75;;;1.02;;
22040;SDS011;11184;52.444;13.578;2023-04-06T16:15:25;5.13;;;2.22;;